Mammoth Cave National Park, KY

12:21 AM CDT op 31 juli 2014 (GMT -0500)
Ridgeview Drive (KKYBOWLI7) Hoogte 650 ft | 36.99 °N, 86.52 °W | Change Station

Current weather conditions updated 4 seconds ago

Clear
Helder
66.2 °F
Voelt als 66.2 °F
N
0.0
Wind Variabel Wind van NO
Gusts 0.0 mijl/u

Er wordt verwacht dat het vandaag warmer is dan gisteren.

Vandaag
Hoog -- | Laag -- °F
--% Kans op neerslag
Gisteren
Hoog -- | Laag -- °F
Precip. -- inches
5:50 AM 7:53 PM
Wassende halvemaan, 16% visible
Druk 30.09 inches
Zicht 10.0 mijlen
Wolken Helder
Dauwpunt 60 °F
Vochtigheid 81%
Neerslag 0.00 inches
Dikte sneeuw Niet beschikbaar.
UV 0 van de 12
Pollen 4.50 van de 12
Luchtkwaliteit Niet beschikbaar.
Flu Activity Niet beschikbaar.
METAR KBWG 310453Z AUTO 00000KT 10SM CLR 18/14 A3010 RMK AO2 SLP187 T01830144

More Conditions Fewer Conditions

Druk 30.09 inches
Zicht 10.0 mijlen
Wolken Helder
Dauwpunt 60 °F
Vochtigheid 81%
Neerslag 0.00 inches
Dikte sneeuw Niet beschikbaar.
UV 0 van de 12
Pollen 4.50 van de 12
Luchtkwaliteit Niet beschikbaar.
Flu Activity Niet beschikbaar.
METAR KBWG 310453Z AUTO 00000KT 10SM CLR 18/14 A3010 RMK AO2 SLP187 T01830144

More Conditions Fewer Conditions

10-Day Weather Forecast

Almanac

Astronomie

Jul. 31, 2014 Opkomst Ondergang
Werkelijke tijd 5:50 AM CDT 7:53 PM CDT
Burgerlijke schemering 5:21 AM CDT 8:22 PM CDT
Nautische schemering 4:46 AM CDT 8:57 PM CDT
Astronomische schemering 4:08 AM CDT 9:35 PM CDT
Maan 10:09 AM CDT 10:14 PM CDT
Golflengte van het zichtbare licht 15h 01m
Daglengte
14h 03m
Tomorrow will be 1m 46s shorter.
Wassende halvemaan, 16% of the Moon is Illuminated
Vandaag
Wassende halvemaan
aug 3
Eerste kwartier
aug 10
Volle maan
aug 17
Laatste kwartier
aug 25
Nieuw

Extremen vandaag

State Highs State Lows

Community

WunderPhotos

Upload Photos

1,739,248 foto’s ge-upload!

Nearby

Dikte sneeuw

Station Depth Geometrische hoogte
Er is geen verse sneeuw gerapporteerd.

Aardbevingen

Stad Distance Mag. Time & Date
No recent earthquake activity has been reported nearby.
Minimum magnitude displayed is 2.5.

Watertemperatuur langs de kust

Plaats Temperatuur
Geen meldingen van stations

Nabije weerstations

Locatie station Temp. Dauwpunt Vochtigheid Wind Precip. Hoogte Geactualiseerd Type
Ridgeview Drive, Bowling Green, KY 66.2 °F 60 °F 81% NO  op  0.0 mijl/u 0.00 inches / hr 650 ft 12:21 AM CDT Rapid Fire
MIDCREST DR., Bowling Green, KY 68.0 °F 59 °F 73% west  op  0.0 mijl/u 0.00 inches / hr 686 ft 12:21 AM CDT Rapid Fire
Plano, Bowling Green, KY 62.9 °F 62 °F 98% noord  op  0.0 mijl/u 0.00 inches / hr 630 ft 12:20 AM CDT Rapid Fire
Al Bedel Road, Auburn, KY 63.8 °F 58 °F 81% NW  op  0.0 mijl/u 0.00 inches / hr 650 ft 12:20 AM CDT Normaal

Show More Stations Show Fewer Stations